MDT,Max TemperatureF,Mean TemperatureF,Min TemperatureF,Max Dew PointF,MeanDew PointF,Min DewpointF,Max Humidity, Mean Humidity, Min Humidity, Max Sea Level PressureIn, Mean Sea Level PressureIn, Min Sea Level PressureIn, Max VisibilityMiles, Mean VisibilityMiles, Min VisibilityMiles, Max Wind SpeedMPH, Mean Wind SpeedMPH, Max Gust SpeedMPH,PrecipitationIn, CloudCover, Events, WindDirDegrees
2013-7-1,86,65,44,81,62,41,100,86,79,30.43,30.37,30.32,10,10,10,12,3,18,0.00,0,Rain,17
2013-7-2,87,63,39,82,62,36,100,88,81,30.40,30.33,30.26,10,10,10,14,2,25,0.00,0,Rain,356
2013-7-3,86,66,46,81,64,41,100,85,81,30.29,30.22,30.14,10,10,10,10,3,21,0.00,0,Rain,329
2013-7-4,82,64,46,77,59,43,100,86,82,30.18,30.12,30.04,10,10,10,15,2,26,0.00,2,Rain,258
2013-7-5,75,60,46,70,54,43,100,85,82,30.08,30.04,29.98,10,10,1,20,5,28,0.57,5,Rain,232
2013-7-6,73,58,42,68,50,39,93,84,81,30.17,30.10,30.04,10,8,0,18,3,25,0.14,5,Fog-Rain,214
2013-7-7,77,60,42,73,54,39,100,85,81,30.18,30.13,30.06,10,8,0,23,5,32,0.00,3,Fog-Rain,203
2013-7-8,77,58,39,73,52,36,89,84,81,30.23,30.19,30.13,10,10,4,28,4,37,0.21,1,Rain,233
2013-7-9,78,58,39,73,56,36,89,84,81,30.36,30.31,30.24,10,10,10,13,2,20,0.00,0,,235
2013-7-10,82,60,37,77,58,34,89,85,81,30.33,30.25,30.12,10,10,10,17,2,25,0.00,0,,215
2013-7-11,75,60,44,72,54,39,89,84,81,30.19,30.13,30.09,10,10,9,18,4,29,0.00,2,Rain,227
2013-7-12,75,60,44,70,56,39,88,84,81,30.18,30.13,30.08,10,10,10,22,6,31,0.00,0,,217
2013-7-13,75,57,39,72,56,34,100,85,81,30.25,30.19,30.13,10,10,10,24,5,32,0.00,1,,215
2013-7-14,80,58,37,75,58,36,100,86,81,30.33,30.27,30.20,10,10,10,23,4,31,0.00,1,,226
2013-7-15,82,62,41,77,59,36,100,85,81,30.27,30.21,30.14,10,10,10,18,3,29,0.00,0,,224
2013-7-16,73,57,41,68,55,36,88,84,81,30.33,30.25,30.18,10,10,5,16,3,23,0.06,4,Rain,90
2013-7-17,82,68,53,77,60,48,100,86,82,30.35,30.32,30.23,10,8,0,18,4,25,0.05,3,Fog-Rain,234
2013-7-18,80,63,46,75,59,41,93,84,81,30.37,30.33,30.28,10,9,0,17,4,25,0.00,2,Fog,290
2013-7-19,82,60,37,77,58,37,100,89,82,30.33,30.27,30.19,10,10,10,12,2,22,0.00,0,Rain,316
2013-7-20,82,60,37,77,58,32,100,87,81,30.23,30.16,30.08,10,10,10,9,3,20,0.00,0,,281
2013-7-21,82,58,35,77,59,36,100,88,82,30.14,30.10,30.05,10,10,10,17,3,26,0.00,0,,239
2013-7-22,84,58,33,79,58,30,100,86,79,30.18,30.13,30.09,10,10,10,21,4,31,0.00,0,,221
2013-7-23,82,57,32,77,57,28,100,86,81,30.31,30.25,30.19,10,10,10,9,3,16,0.00,1,,304
2013-7-24,84,62,39,79,59,36,89,84,81,30.30,30.24,30.18,10,10,10,21,3,28,0.00,0,,233
2013-7-25,82,60,37,77,58,36,100,87,81,30.32,30.28,30.21,10,10,10,15,3,23,0.00,0,,242
2013-7-26,84,60,37,81,60,34,100,85,79,30.40,30.32,30.24,10,10,10,17,3,30,0.00,1,,251
2013-7-27,68,54,39,64,54,39,100,86,81,30.27,30.22,30.14,10,10,10,21,3,29,0.00,3,,214
2013-7-28,73,56,39,68,52,34,88,85,81,30.14,30.09,30.04,10,10,10,20,4,33,0.00,1,,223
2013-7-29,75,55,35,70,52,32,88,84,81,30.25,30.14,30.08,10,10,8,23,5,33,0.01,3,Rain,214
2013-7-30,77,55,33,73,49,30,89,85,81,30.39,30.31,30.24,10,10,4,24,3,34,0.02,2,Rain,270
2013-7-31,80,56,32,75,51,28,100,87,81,30.43,30.36,30.26,10,10,6,22,3,29,0.05,1,Rain,18